sensor_id;sensor_type;location;lat;lon;timestamp;P1;durP1;ratioP1;P2;durP2;ratioP2
58808;SDS011;44579;51.672;7.834;2022-07-06T00:01:46;14.17;;;4.27;;
58808;SDS011;44579;51.672;7.834;2022-07-06T00:04:13;13.80;;;4.35;;
58808;SDS011;44579;51.672;7.834;2022-07-06T00:06:40;18.35;;;4.22;;
58808;SDS011;44579;51.672;7.834;2022-07-06T00:09:07;15.40;;;3.17;;
58808;SDS011;44579;51.672;7.834;2022-07-06T00:11:34;17.20;;;3.97;;
58808;SDS011;44579;51.672;7.834;2022-07-06T00:14:01;15.38;;;4.32;;
58808;SDS011;44579;51.672;7.834;2022-07-06T00:16:28;15.25;;;5.18;;
58808;SDS011;44579;51.672;7.834;2022-07-06T00:18:55;6.85;;;2.75;;
58808;SDS011;44579;51.672;7.834;2022-07-06T00:21:22;7.90;;;3.25;;
58808;SDS011;44579;51.672;7.834;2022-07-06T00:23:48;10.70;;;3.75;;
58808;SDS011;44579;51.672;7.834;2022-07-06T00:26:15;10.35;;;3.10;;
58808;SDS011;44579;51.672;7.834;2022-07-06T00:28:42;7.78;;;3.08;;
58808;SDS011;44579;51.672;7.834;2022-07-06T00:31:09;12.10;;;2.70;;
58808;SDS011;44579;51.672;7.834;2022-07-06T00:33:36;12.40;;;3.60;;
58808;SDS011;44579;51.672;7.834;2022-07-06T00:36:03;12.50;;;3.58;;
58808;SDS011;44579;51.672;7.834;2022-07-06T00:38:30;19.13;;;5.25;;
58808;SDS011;44579;51.672;7.834;2022-07-06T00:40:57;12.30;;;3.92;;
58808;SDS011;44579;51.672;7.834;2022-07-06T00:43:24;5.57;;;3.42;;
58808;SDS011;44579;51.672;7.834;2022-07-06T00:45:51;12.18;;;3.30;;
58808;SDS011;44579;51.672;7.834;2022-07-06T00:48:17;14.35;;;3.65;;
58808;SDS011;44579;51.672;7.834;2022-07-06T00:50:45;12.40;;;3.65;;
58808;SDS011;44579;51.672;7.834;2022-07-06T00:53:13;15.57;;;3.70;;
58808;SDS011;44579;51.672;7.834;2022-07-06T00:55:40;10.50;;;3.50;;
58808;SDS011;44579;51.672;7.834;2022-07-06T00:58:08;12.77;;;4.28;;
58808;SDS011;44579;51.672;7.834;2022-07-06T01:00:35;13.07;;;3.20;;
58808;SDS011;44579;51.672;7.834;2022-07-06T01:03:02;9.43;;;3.00;;
58808;SDS011;44579;51.672;7.834;2022-07-06T01:05:29;14.02;;;4.63;;
58808;SDS011;44579;51.672;7.834;2022-07-06T01:07:56;19.83;;;3.67;;
58808;SDS011;44579;51.672;7.834;2022-07-06T01:10:24;12.70;;;3.55;;
58808;SDS011;44579;51.672;7.834;2022-07-06T01:12:51;12.80;;;3.20;;
58808;SDS011;44579;51.672;7.834;2022-07-06T01:15:18;16.27;;;3.40;;
58808;SDS011;44579;51.672;7.834;2022-07-06T01:17:47;14.75;;;3.85;;
58808;SDS011;44579;51.672;7.834;2022-07-06T01:20:19;14.43;;;3.92;;
58808;SDS011;44579;51.672;7.834;2022-07-06T01:22:47;9.38;;;3.42;;
58808;SDS011;44579;51.672;7.834;2022-07-06T01:25:16;9.98;;;3.90;;
58808;SDS011;44579;51.672;7.834;2022-07-06T01:27:43;8.00;;;3.95;;
58808;SDS011;44579;51.672;7.834;2022-07-06T01:30:14;19.08;;;4.55;;
58808;SDS011;44579;51.672;7.834;2022-07-06T01:32:43;17.10;;;4.35;;
58808;SDS011;44579;51.672;7.834;2022-07-06T01:37:38;15.27;;;3.47;;
58808;SDS011;44579;51.672;7.834;2022-07-06T01:40:07;10.02;;;3.97;;
58808;SDS011;44579;51.672;7.834;2022-07-06T01:42:35;9.43;;;3.25;;
58808;SDS011;44579;51.672;7.834;2022-07-06T01:45:03;18.17;;;4.57;;
58808;SDS011;44579;51.672;7.834;2022-07-06T01:47:31;11.48;;;3.65;;
58808;SDS011;44579;51.672;7.834;2022-07-06T01:49:59;13.15;;;3.97;;
58808;SDS011;44579;51.672;7.834;2022-07-06T01:52:30;16.17;;;3.85;;
58808;SDS011;44579;51.672;7.834;2022-07-06T01:54:57;13.25;;;3.50;;
58808;SDS011;44579;51.672;7.834;2022-07-06T01:57:24;10.52;;;3.40;;
58808;SDS011;44579;51.672;7.834;2022-07-06T01:59:51;9.05;;;3.47;;
58808;SDS011;44579;51.672;7.834;2022-07-06T02:02:18;10.80;;;3.78;;
58808;SDS011;44579;51.672;7.834;2022-07-06T02:04:45;17.60;;;3.47;;
58808;SDS011;44579;51.672;7.834;2022-07-06T02:07:12;5.53;;;3.30;;
58808;SDS011;44579;51.672;7.834;2022-07-06T02:09:39;17.48;;;3.50;;
58808;SDS011;44579;51.672;7.834;2022-07-06T02:12:06;6.70;;;3.17;;
58808;SDS011;44579;51.672;7.834;2022-07-06T02:14:34;10.82;;;3.25;;
58808;SDS011;44579;51.672;7.834;2022-07-06T02:17:01;12.93;;;3.60;;
58808;SDS011;44579;51.672;7.834;2022-07-06T02:19:28;14.60;;;3.90;;
58808;SDS011;44579;51.672;7.834;2022-07-06T02:21:55;20.88;;;4.32;;
58808;SDS011;44579;51.672;7.834;2022-07-06T02:24:21;8.63;;;3.28;;
58808;SDS011;44579;51.672;7.834;2022-07-06T02:26:48;26.30;;;4.22;;
58808;SDS011;44579;51.672;7.834;2022-07-06T02:29:16;13.32;;;4.35;;
58808;SDS011;44579;51.672;7.834;2022-07-06T02:31:42;10.37;;;4.47;;
58808;SDS011;44579;51.672;7.834;2022-07-06T02:34:10;10.50;;;4.20;;
58808;SDS011;44579;51.672;7.834;2022-07-06T02:36:37;7.78;;;4.28;;
58808;SDS011;44579;51.672;7.834;2022-07-06T02:39:04;19.48;;;5.03;;
58808;SDS011;44579;51.672;7.834;2022-07-06T02:41:31;10.13;;;4.70;;
58808;SDS011;44579;51.672;7.834;2022-07-06T02:43:57;14.67;;;4.80;;
58808;SDS011;44579;51.672;7.834;2022-07-06T02:46:24;17.17;;;4.77;;
58808;SDS011;44579;51.672;7.834;2022-07-06T02:48:51;17.67;;;4.68;;
58808;SDS011;44579;51.672;7.834;2022-07-06T02:51:18;14.70;;;4.83;;
58808;SDS011;44579;51.672;7.834;2022-07-06T02:53:45;18.60;;;4.88;;
58808;SDS011;44579;51.672;7.834;2022-07-06T02:56:12;11.90;;;4.20;;
58808;SDS011;44579;51.672;7.834;2022-07-06T02:58:39;7.95;;;4.10;;
58808;SDS011;44579;51.672;7.834;2022-07-06T03:01:07;9.10;;;4.30;;
58808;SDS011;44579;51.672;7.834;2022-07-06T03:03:34;21.33;;;4.43;;
58808;SDS011;44579;51.672;7.834;2022-07-06T03:06:01;11.65;;;3.63;;
58808;SDS011;44579;51.672;7.834;2022-07-06T03:08:31;15.00;;;4.55;;
58808;SDS011;44579;51.672;7.834;2022-07-06T03:11:00;13.60;;;4.05;;
58808;SDS011;44579;51.672;7.834;2022-07-06T03:13:28;13.80;;;4.40;;
58808;SDS011;44579;51.672;7.834;2022-07-06T03:15:55;16.13;;;3.97;;
58808;SDS011;44579;51.672;7.834;2022-07-06T03:18:23;7.57;;;4.15;;
58808;SDS011;44579;51.672;7.834;2022-07-06T03:20:51;6.53;;;3.47;;
58808;SDS011;44579;51.672;7.834;2022-07-06T03:23:19;21.77;;;4.13;;
58808;SDS011;44579;51.672;7.834;2022-07-06T03:25:46;20.00;;;3.90;;
58808;SDS011;44579;51.672;7.834;2022-07-06T03:30:40;11.80;;;3.95;;
58808;SDS011;44579;51.672;7.834;2022-07-06T03:33:07;10.07;;;4.10;;
58808;SDS011;44579;51.672;7.834;2022-07-06T03:35:34;7.70;;;2.70;;
58808;SDS011;44579;51.672;7.834;2022-07-06T03:38:04;16.25;;;3.50;;
58808;SDS011;44579;51.672;7.834;2022-07-06T03:42:59;7.55;;;3.78;;
58808;SDS011;44579;51.672;7.834;2022-07-06T03:45:29;8.60;;;4.18;;
58808;SDS011;44579;51.672;7.834;2022-07-06T03:47:58;13.13;;;4.55;;
58808;SDS011;44579;51.672;7.834;2022-07-06T03:50:25;16.20;;;4.47;;
58808;SDS011;44579;51.672;7.834;2022-07-06T03:52:52;8.85;;;2.58;;
58808;SDS011;44579;51.672;7.834;2022-07-06T03:55:19;12.03;;;5.40;;
58808;SDS011;44579;51.672;7.834;2022-07-06T03:57:50;13.20;;;4.57;;
58808;SDS011;44579;51.672;7.834;2022-07-06T04:00:21;6.13;;;3.42;;
58808;SDS011;44579;51.672;7.834;2022-07-06T04:02:55;8.75;;;3.97;;
58808;SDS011;44579;51.672;7.834;2022-07-06T04:05:26;17.25;;;3.15;;
58808;SDS011;44579;51.672;7.834;2022-07-06T04:07:54;13.43;;;3.42;;
58808;SDS011;44579;51.672;7.834;2022-07-06T04:10:26;13.80;;;3.75;;
58808;SDS011;44579;51.672;7.834;2022-07-06T04:12:55;12.60;;;3.38;;
58808;SDS011;44579;51.672;7.834;2022-07-06T04:15:22;7.22;;;3.40;;
58808;SDS011;44579;51.672;7.834;2022-07-06T04:17:49;12.10;;;3.58;;
58808;SDS011;44579;51.672;7.834;2022-07-06T04:20:41;8.75;;;3.40;;
58808;SDS011;44579;51.672;7.834;2022-07-06T04:23:08;10.27;;;3.42;;
58808;SDS011;44579;51.672;7.834;2022-07-06T04:25:35;5.70;;;3.53;;
58808;SDS011;44579;51.672;7.834;2022-07-06T04:28:02;11.20;;;4.05;;
58808;SDS011;44579;51.672;7.834;2022-07-06T04:30:30;9.18;;;3.50;;
58808;SDS011;44579;51.672;7.834;2022-07-06T04:32:57;8.95;;;3.22;;
58808;SDS011;44579;51.672;7.834;2022-07-06T04:35:27;8.20;;;3.30;;
58808;SDS011;44579;51.672;7.834;2022-07-06T04:37:55;9.68;;;3.70;;
58808;SDS011;44579;51.672;7.834;2022-07-06T04:40:23;7.78;;;3.15;;
58808;SDS011;44579;51.672;7.834;2022-07-06T04:42:55;6.43;;;3.25;;
58808;SDS011;44579;51.672;7.834;2022-07-06T04:45:24;16.55;;;3.22;;
58808;SDS011;44579;51.672;7.834;2022-07-06T04:47:51;8.73;;;3.15;;
58808;SDS011;44579;51.672;7.834;2022-07-06T04:50:18;7.03;;;3.13;;
58808;SDS011;44579;51.672;7.834;2022-07-06T04:52:48;18.30;;;2.97;;
58808;SDS011;44579;51.672;7.834;2022-07-06T04:57:43;6.75;;;2.83;;
58808;SDS011;44579;51.672;7.834;2022-07-06T05:00:12;12.27;;;3.38;;
58808;SDS011;44579;51.672;7.834;2022-07-06T05:02:40;9.68;;;3.53;;
58808;SDS011;44579;51.672;7.834;2022-07-06T05:05:07;8.32;;;3.13;;
58808;SDS011;44579;51.672;7.834;2022-07-06T05:07:36;7.55;;;3.53;;
58808;SDS011;44579;51.672;7.834;2022-07-06T05:10:10;6.85;;;2.88;;
58808;SDS011;44579;51.672;7.834;2022-07-06T05:12:41;9.77;;;2.88;;
58808;SDS011;44579;51.672;7.834;2022-07-06T05:15:08;7.03;;;2.95;;
58808;SDS011;44579;51.672;7.834;2022-07-06T05:17:35;7.25;;;2.55;;
58808;SDS011;44579;51.672;7.834;2022-07-06T05:20:04;8.73;;;3.30;;
58808;SDS011;44579;51.672;7.834;2022-07-06T05:22:35;11.88;;;3.03;;
58808;SDS011;44579;51.672;7.834;2022-07-06T05:25:11;12.75;;;3.15;;
58808;SDS011;44579;51.672;7.834;2022-07-06T05:27:38;13.32;;;3.55;;
58808;SDS011;44579;51.672;7.834;2022-07-06T05:30:06;15.35;;;2.95;;
58808;SDS011;44579;51.672;7.834;2022-07-06T05:32:35;13.68;;;3.53;;
58808;SDS011;44579;51.672;7.834;2022-07-06T05:35:02;18.60;;;3.72;;
58808;SDS011;44579;51.672;7.834;2022-07-06T05:37:49;9.75;;;3.15;;
58808;SDS011;44579;51.672;7.834;2022-07-06T05:40:16;15.80;;;3.80;;
58808;SDS011;44579;51.672;7.834;2022-07-06T05:42:43;8.80;;;2.92;;
58808;SDS011;44579;51.672;7.834;2022-07-06T05:45:10;17.10;;;3.15;;
58808;SDS011;44579;51.672;7.834;2022-07-06T05:47:37;5.70;;;2.22;;
58808;SDS011;44579;51.672;7.834;2022-07-06T05:50:23;9.50;;;2.53;;
58808;SDS011;44579;51.672;7.834;2022-07-06T05:53:00;7.50;;;1.92;;
58808;SDS011;44579;51.672;7.834;2022-07-06T05:55:42;6.15;;;2.67;;
58808;SDS011;44579;51.672;7.834;2022-07-06T05:58:09;8.45;;;2.33;;
58808;SDS011;44579;51.672;7.834;2022-07-06T06:00:36;9.75;;;2.45;;
58808;SDS011;44579;51.672;7.834;2022-07-06T06:03:12;7.20;;;1.88;;
58808;SDS011;44579;51.672;7.834;2022-07-06T06:05:40;4.88;;;2.10;;
58808;SDS011;44579;51.672;7.834;2022-07-06T06:08:08;16.80;;;2.88;;
58808;SDS011;44579;51.672;7.834;2022-07-06T06:10:35;6.00;;;1.95;;
58808;SDS011;44579;51.672;7.834;2022-07-06T06:13:06;8.73;;;1.67;;
58808;SDS011;44579;51.672;7.834;2022-07-06T06:15:34;5.65;;;1.85;;
58808;SDS011;44579;51.672;7.834;2022-07-06T06:18:03;4.45;;;1.70;;
58808;SDS011;44579;51.672;7.834;2022-07-06T06:20:32;5.63;;;1.42;;
58808;SDS011;44579;51.672;7.834;2022-07-06T06:22:59;5.20;;;1.45;;
58808;SDS011;44579;51.672;7.834;2022-07-06T06:25:31;6.28;;;1.75;;
58808;SDS011;44579;51.672;7.834;2022-07-06T06:28:06;5.43;;;1.90;;
58808;SDS011;44579;51.672;7.834;2022-07-06T06:30:35;4.80;;;1.70;;
58808;SDS011;44579;51.672;7.834;2022-07-06T06:33:13;4.28;;;1.55;;
58808;SDS011;44579;51.672;7.834;2022-07-06T06:35:45;6.80;;;1.75;;
58808;SDS011;44579;51.672;7.834;2022-07-06T06:38:21;5.35;;;1.67;;
58808;SDS011;44579;51.672;7.834;2022-07-06T06:40:53;4.22;;;1.38;;
58808;SDS011;44579;51.672;7.834;2022-07-06T06:43:20;6.55;;;1.73;;
58808;SDS011;44579;51.672;7.834;2022-07-06T06:45:57;4.18;;;1.40;;
58808;SDS011;44579;51.672;7.834;2022-07-06T06:48:23;3.88;;;1.42;;
58808;SDS011;44579;51.672;7.834;2022-07-06T06:50:50;7.93;;;1.27;;
58808;SDS011;44579;51.672;7.834;2022-07-06T06:53:17;6.22;;;1.40;;
58808;SDS011;44579;51.672;7.834;2022-07-06T06:55:44;5.32;;;1.27;;
58808;SDS011;44579;51.672;7.834;2022-07-06T06:58:11;5.43;;;1.10;;
58808;SDS011;44579;51.672;7.834;2022-07-06T07:00:38;4.57;;;0.95;;
58808;SDS011;44579;51.672;7.834;2022-07-06T07:03:04;8.90;;;1.35;;
58808;SDS011;44579;51.672;7.834;2022-07-06T07:05:31;10.65;;;1.67;;
58808;SDS011;44579;51.672;7.834;2022-07-06T07:07:58;5.47;;;1.30;;
58808;SDS011;44579;51.672;7.834;2022-07-06T07:10:30;7.45;;;1.70;;
58808;SDS011;44579;51.672;7.834;2022-07-06T07:12:57;7.07;;;1.52;;
58808;SDS011;44579;51.672;7.834;2022-07-06T07:15:24;6.28;;;1.35;;
58808;SDS011;44579;51.672;7.834;2022-07-06T07:17:51;9.38;;;0.80;;
58808;SDS011;44579;51.672;7.834;2022-07-06T07:20:18;5.93;;;1.00;;
58808;SDS011;44579;51.672;7.834;2022-07-06T07:22:45;6.10;;;0.98;;
58808;SDS011;44579;51.672;7.834;2022-07-06T07:25:11;3.88;;;1.02;;
58808;SDS011;44579;51.672;7.834;2022-07-06T07:27:38;2.38;;;0.90;;
58808;SDS011;44579;51.672;7.834;2022-07-06T07:30:05;4.00;;;0.95;;
58808;SDS011;44579;51.672;7.834;2022-07-06T07:34:59;6.22;;;1.42;;
58808;SDS011;44579;51.672;7.834;2022-07-06T07:37:27;5.35;;;0.85;;
58808;SDS011;44579;51.672;7.834;2022-07-06T07:39:54;3.20;;;1.13;;
58808;SDS011;44579;51.672;7.834;2022-07-06T07:42:21;4.78;;;0.80;;
58808;SDS011;44579;51.672;7.834;2022-07-06T07:44:48;4.05;;;1.42;;
58808;SDS011;44579;51.672;7.834;2022-07-06T07:47:15;6.53;;;1.20;;
58808;SDS011;44579;51.672;7.834;2022-07-06T07:49:42;4.78;;;0.80;;
58808;SDS011;44579;51.672;7.834;2022-07-06T07:52:09;1.88;;;0.57;;
58808;SDS011;44579;51.672;7.834;2022-07-06T07:54:36;2.92;;;0.70;;
58808;SDS011;44579;51.672;7.834;2022-07-06T07:57:08;3.83;;;0.70;;
58808;SDS011;44579;51.672;7.834;2022-07-06T08:04:30;3.20;;;0.68;;
58808;SDS011;44579;51.672;7.834;2022-07-06T08:06:57;5.47;;;0.75;;
58808;SDS011;44579;51.672;7.834;2022-07-06T08:09:27;4.32;;;0.70;;
58808;SDS011;44579;51.672;7.834;2022-07-06T08:11:54;4.07;;;0.85;;
58808;SDS011;44579;51.672;7.834;2022-07-06T08:14:21;7.28;;;0.80;;
58808;SDS011;44579;51.672;7.834;2022-07-06T08:16:48;2.90;;;0.60;;
58808;SDS011;44579;51.672;7.834;2022-07-06T08:19:15;2.60;;;0.93;;
58808;SDS011;44579;51.672;7.834;2022-07-06T08:21:41;7.55;;;0.80;;
58808;SDS011;44579;51.672;7.834;2022-07-06T08:24:09;3.00;;;0.82;;
58808;SDS011;44579;51.672;7.834;2022-07-06T08:26:36;7.75;;;0.90;;
58808;SDS011;44579;51.672;7.834;2022-07-06T08:29:03;6.82;;;0.88;;
58808;SDS011;44579;51.672;7.834;2022-07-06T08:34:17;10.02;;;0.90;;
58808;SDS011;44579;51.672;7.834;2022-07-06T08:36:44;2.85;;;0.80;;
58808;SDS011;44579;51.672;7.834;2022-07-06T08:39:11;5.82;;;0.75;;
58808;SDS011;44579;51.672;7.834;2022-07-06T08:41:38;8.52;;;1.00;;
58808;SDS011;44579;51.672;7.834;2022-07-06T08:44:07;3.55;;;1.55;;
58808;SDS011;44579;51.672;7.834;2022-07-06T08:46:37;4.25;;;0.80;;
58808;SDS011;44579;51.672;7.834;2022-07-06T08:49:06;6.35;;;0.98;;
58808;SDS011;44579;51.672;7.834;2022-07-06T08:51:35;1.45;;;0.57;;
58808;SDS011;44579;51.672;7.834;2022-07-06T08:54:02;2.85;;;0.85;;
58808;SDS011;44579;51.672;7.834;2022-07-06T08:56:30;6.05;;;1.10;;
58808;SDS011;44579;51.672;7.834;2022-07-06T08:58:57;5.75;;;1.20;;
58808;SDS011;44579;51.672;7.834;2022-07-06T09:01:24;5.05;;;1.10;;
58808;SDS011;44579;51.672;7.834;2022-07-06T09:03:51;1.48;;;0.70;;
58808;SDS011;44579;51.672;7.834;2022-07-06T09:06:23;5.50;;;0.90;;
58808;SDS011;44579;51.672;7.834;2022-07-06T09:08:53;11.50;;;1.00;;
58808;SDS011;44579;51.672;7.834;2022-07-06T09:11:21;4.82;;;0.88;;
58808;SDS011;44579;51.672;7.834;2022-07-06T09:13:51;6.47;;;1.05;;
58808;SDS011;44579;51.672;7.834;2022-07-06T09:19:05;4.55;;;0.80;;
58808;SDS011;44579;51.672;7.834;2022-07-06T09:21:33;4.45;;;0.90;;
58808;SDS011;44579;51.672;7.834;2022-07-06T09:24:07;1.70;;;0.68;;
58808;SDS011;44579;51.672;7.834;2022-07-06T09:26:36;2.10;;;0.65;;
58808;SDS011;44579;51.672;7.834;2022-07-06T09:29:03;6.22;;;0.60;;
58808;SDS011;44579;51.672;7.834;2022-07-06T09:31:31;8.07;;;0.77;;
58808;SDS011;44579;51.672;7.834;2022-07-06T09:34:03;1.88;;;0.70;;
58808;SDS011;44579;51.672;7.834;2022-07-06T09:36:39;8.52;;;1.08;;
58808;SDS011;44579;51.672;7.834;2022-07-06T09:39:17;4.00;;;0.93;;
58808;SDS011;44579;51.672;7.834;2022-07-06T09:41:49;3.97;;;0.63;;
58808;SDS011;44579;51.672;7.834;2022-07-06T09:44:37;7.38;;;0.80;;
58808;SDS011;44579;51.672;7.834;2022-07-06T09:47:08;2.83;;;0.70;;
58808;SDS011;44579;51.672;7.834;2022-07-06T09:49:38;6.75;;;0.77;;
58808;SDS011;44579;51.672;7.834;2022-07-06T09:52:06;2.67;;;0.50;;
58808;SDS011;44579;51.672;7.834;2022-07-06T09:54:34;4.47;;;0.50;;
58808;SDS011;44579;51.672;7.834;2022-07-06T09:57:03;5.38;;;0.73;;
58808;SDS011;44579;51.672;7.834;2022-07-06T09:59:35;2.42;;;0.50;;
58808;SDS011;44579;51.672;7.834;2022-07-06T10:04:30;3.78;;;0.50;;
58808;SDS011;44579;51.672;7.834;2022-07-06T10:06:58;2.70;;;0.50;;
58808;SDS011;44579;51.672;7.834;2022-07-06T10:11:57;1.45;;;0.30;;
58808;SDS011;44579;51.672;7.834;2022-07-06T10:14:27;3.13;;;0.50;;
58808;SDS011;44579;51.672;7.834;2022-07-06T10:17:01;6.28;;;0.73;;
58808;SDS011;44579;51.672;7.834;2022-07-06T10:19:31;3.22;;;0.50;;
58808;SDS011;44579;51.672;7.834;2022-07-06T10:22:00;3.45;;;0.38;;
58808;SDS011;44579;51.672;7.834;2022-07-06T10:24:29;3.03;;;0.73;;
58808;SDS011;44579;51.672;7.834;2022-07-06T10:26:57;4.63;;;0.60;;
58808;SDS011;44579;51.672;7.834;2022-07-06T10:29:24;1.95;;;0.50;;
58808;SDS011;44579;51.672;7.834;2022-07-06T10:31:51;1.65;;;0.52;;
58808;SDS011;44579;51.672;7.834;2022-07-06T10:34:20;1.70;;;0.40;;
58808;SDS011;44579;51.672;7.834;2022-07-06T10:36:51;1.58;;;0.40;;
58808;SDS011;44579;51.672;7.834;2022-07-06T10:39:35;2.67;;;0.32;;
58808;SDS011;44579;51.672;7.834;2022-07-06T10:45:13;3.03;;;0.45;;
58808;SDS011;44579;51.672;7.834;2022-07-06T10:47:41;3.63;;;0.45;;
58808;SDS011;44579;51.672;7.834;2022-07-06T10:50:08;3.70;;;0.55;;
58808;SDS011;44579;51.672;7.834;2022-07-06T10:52:52;2.63;;;0.45;;
58808;SDS011;44579;51.672;7.834;2022-07-06T10:57:59;0.70;;;0.20;;
58808;SDS011;44579;51.672;7.834;2022-07-06T11:06:00;6.87;;;0.50;;
58808;SDS011;44579;51.672;7.834;2022-07-06T11:11:23;4.32;;;0.73;;
58808;SDS011;44579;51.672;7.834;2022-07-06T11:14:00;0.80;;;0.40;;
58808;SDS011;44579;51.672;7.834;2022-07-06T11:16:32;2.00;;;0.50;;
58808;SDS011;44579;51.672;7.834;2022-07-06T11:19:04;6.65;;;0.50;;
58808;SDS011;44579;51.672;7.834;2022-07-06T11:21:37;0.88;;;0.40;;
58808;SDS011;44579;51.672;7.834;2022-07-06T11:24:08;1.05;;;0.20;;
58808;SDS011;44579;51.672;7.834;2022-07-06T11:26:37;4.18;;;0.60;;
58808;SDS011;44579;51.672;7.834;2022-07-06T11:29:07;0.38;;;0.25;;
58808;SDS011;44579;51.672;7.834;2022-07-06T11:31:35;0.77;;;0.30;;
58808;SDS011;44579;51.672;7.834;2022-07-06T11:34:05;1.50;;;0.20;;
58808;SDS011;44579;51.672;7.834;2022-07-06T11:36:34;5.15;;;0.40;;
58808;SDS011;44579;51.672;7.834;2022-07-06T11:39:08;0.82;;;0.20;;
58808;SDS011;44579;51.672;7.834;2022-07-06T11:41:35;4.20;;;0.65;;
58808;SDS011;44579;51.672;7.834;2022-07-06T11:44:03;1.50;;;0.28;;
58808;SDS011;44579;51.672;7.834;2022-07-06T11:46:30;5.18;;;0.52;;
58808;SDS011;44579;51.672;7.834;2022-07-06T11:49:01;3.17;;;0.52;;
58808;SDS011;44579;51.672;7.834;2022-07-06T11:51:29;2.45;;;0.43;;
58808;SDS011;44579;51.672;7.834;2022-07-06T11:53:58;2.75;;;0.43;;
58808;SDS011;44579;51.672;7.834;2022-07-06T11:56:27;3.45;;;0.57;;
58808;SDS011;44579;51.672;7.834;2022-07-06T11:58:56;1.98;;;0.47;;
58808;SDS011;44579;51.672;7.834;2022-07-06T12:01:24;2.60;;;0.47;;
58808;SDS011;44579;51.672;7.834;2022-07-06T12:03:56;6.97;;;0.60;;
58808;SDS011;44579;51.672;7.834;2022-07-06T12:06:25;2.40;;;0.47;;
58808;SDS011;44579;51.672;7.834;2022-07-06T12:08:54;3.10;;;0.40;;
58808;SDS011;44579;51.672;7.834;2022-07-06T12:11:23;4.50;;;0.73;;
58808;SDS011;44579;51.672;7.834;2022-07-06T12:13:58;4.72;;;0.60;;
58808;SDS011;44579;51.672;7.834;2022-07-06T12:16:35;4.38;;;0.40;;
58808;SDS011;44579;51.672;7.834;2022-07-06T12:19:03;0.70;;;0.30;;
58808;SDS011;44579;51.672;7.834;2022-07-06T12:21:33;0.80;;;0.50;;
58808;SDS011;44579;51.672;7.834;2022-07-06T12:24:00;9.10;;;0.50;;
58808;SDS011;44579;51.672;7.834;2022-07-06T12:26:27;2.75;;;0.57;;
58808;SDS011;44579;51.672;7.834;2022-07-06T12:31:39;2.17;;;0.45;;
58808;SDS011;44579;51.672;7.834;2022-07-06T12:34:13;8.32;;;0.98;;
58808;SDS011;44579;51.672;7.834;2022-07-06T12:36:45;4.18;;;0.60;;
58808;SDS011;44579;51.672;7.834;2022-07-06T12:39:21;5.35;;;0.63;;
58808;SDS011;44579;51.672;7.834;2022-07-06T12:41:50;2.58;;;0.43;;
58808;SDS011;44579;51.672;7.834;2022-07-06T12:44:22;3.10;;;0.80;;
58808;SDS011;44579;51.672;7.834;2022-07-06T12:46:50;1.58;;;0.30;;
58808;SDS011;44579;51.672;7.834;2022-07-06T12:49:28;1.38;;;0.43;;
58808;SDS011;44579;51.672;7.834;2022-07-06T12:52:08;3.55;;;0.50;;
58808;SDS011;44579;51.672;7.834;2022-07-06T12:54:41;1.92;;;0.60;;
58808;SDS011;44579;51.672;7.834;2022-07-06T13:05:12;4.57;;;0.82;;
58808;SDS011;44579;51.672;7.834;2022-07-06T13:07:49;6.30;;;0.47;;
58808;SDS011;44579;51.672;7.834;2022-07-06T13:10:16;2.30;;;0.60;;
58808;SDS011;44579;51.672;7.834;2022-07-06T13:12:43;7.97;;;0.50;;
58808;SDS011;44579;51.672;7.834;2022-07-06T13:15:10;7.63;;;0.70;;
58808;SDS011;44579;51.672;7.834;2022-07-06T13:17:37;1.10;;;0.32;;
58808;SDS011;44579;51.672;7.834;2022-07-06T13:22:32;3.42;;;0.63;;
58808;SDS011;44579;51.672;7.834;2022-07-06T13:24:59;3.75;;;0.70;;
58808;SDS011;44579;51.672;7.834;2022-07-06T13:29:53;3.70;;;0.63;;
58808;SDS011;44579;51.672;7.834;2022-07-06T13:32:21;11.23;;;1.58;;
58808;SDS011;44579;51.672;7.834;2022-07-06T13:34:48;4.25;;;0.80;;
58808;SDS011;44579;51.672;7.834;2022-07-06T13:37:15;3.45;;;0.50;;
58808;SDS011;44579;51.672;7.834;2022-07-06T13:39:42;1.15;;;0.38;;
58808;SDS011;44579;51.672;7.834;2022-07-06T13:42:09;3.08;;;0.68;;
58808;SDS011;44579;51.672;7.834;2022-07-06T13:44:35;3.13;;;0.30;;
58808;SDS011;44579;51.672;7.834;2022-07-06T13:47:02;7.03;;;0.57;;
58808;SDS011;44579;51.672;7.834;2022-07-06T13:51:57;3.28;;;0.63;;
58808;SDS011;44579;51.672;7.834;2022-07-06T13:54:30;4.05;;;0.65;;
58808;SDS011;44579;51.672;7.834;2022-07-06T13:57:01;4.22;;;0.50;;
58808;SDS011;44579;51.672;7.834;2022-07-06T13:59:28;5.82;;;0.57;;
58808;SDS011;44579;51.672;7.834;2022-07-06T14:01:56;1.05;;;0.45;;
58808;SDS011;44579;51.672;7.834;2022-07-06T14:04:23;6.00;;;0.38;;
58808;SDS011;44579;51.672;7.834;2022-07-06T14:06:50;1.42;;;0.30;;
58808;SDS011;44579;51.672;7.834;2022-07-06T14:09:17;2.40;;;0.57;;
58808;SDS011;44579;51.672;7.834;2022-07-06T14:11:44;3.53;;;0.80;;
58808;SDS011;44579;51.672;7.834;2022-07-06T14:14:11;2.10;;;0.60;;
58808;SDS011;44579;51.672;7.834;2022-07-06T14:16:38;2.65;;;0.68;;
58808;SDS011;44579;51.672;7.834;2022-07-06T14:19:07;1.95;;;0.70;;
58808;SDS011;44579;51.672;7.834;2022-07-06T14:21:34;4.03;;;0.65;;
58808;SDS011;44579;51.672;7.834;2022-07-06T14:24:01;9.35;;;1.10;;
58808;SDS011;44579;51.672;7.834;2022-07-06T14:26:28;5.47;;;0.70;;
58808;SDS011;44579;51.672;7.834;2022-07-06T14:28:55;6.47;;;0.93;;
58808;SDS011;44579;51.672;7.834;2022-07-06T14:31:21;3.90;;;0.60;;
58808;SDS011;44579;51.672;7.834;2022-07-06T14:33:49;4.32;;;0.50;;
58808;SDS011;44579;51.672;7.834;2022-07-06T14:36:16;2.97;;;0.60;;
58808;SDS011;44579;51.672;7.834;2022-07-06T14:41:10;2.45;;;0.47;;
58808;SDS011;44579;51.672;7.834;2022-07-06T14:43:37;2.38;;;0.70;;
58808;SDS011;44579;51.672;7.834;2022-07-06T14:46:04;2.05;;;0.60;;
58808;SDS011;44579;51.672;7.834;2022-07-06T14:48:31;2.30;;;0.90;;
58808;SDS011;44579;51.672;7.834;2022-07-06T14:50:58;2.20;;;0.80;;
58808;SDS011;44579;51.672;7.834;2022-07-06T14:53:25;3.15;;;0.65;;
58808;SDS011;44579;51.672;7.834;2022-07-06T14:55:53;2.65;;;0.82;;
58808;SDS011;44579;51.672;7.834;2022-07-06T14:58:20;6.70;;;1.40;;
58808;SDS011;44579;51.672;7.834;2022-07-06T15:00:49;4.05;;;0.70;;
58808;SDS011;44579;51.672;7.834;2022-07-06T15:03:23;4.68;;;0.77;;
58808;SDS011;44579;51.672;7.834;2022-07-06T15:05:51;6.22;;;0.63;;
58808;SDS011;44579;51.672;7.834;2022-07-06T15:08:17;1.85;;;0.60;;
58808;SDS011;44579;51.672;7.834;2022-07-06T15:10:44;1.63;;;0.60;;
58808;SDS011;44579;51.672;7.834;2022-07-06T15:13:11;2.50;;;0.70;;
58808;SDS011;44579;51.672;7.834;2022-07-06T15:15:39;3.03;;;0.80;;
58808;SDS011;44579;51.672;7.834;2022-07-06T15:18:22;6.55;;;0.85;;
58808;SDS011;44579;51.672;7.834;2022-07-06T15:20:49;2.40;;;0.80;;
58808;SDS011;44579;51.672;7.834;2022-07-06T15:23:16;9.27;;;1.00;;
58808;SDS011;44579;51.672;7.834;2022-07-06T15:25:43;4.28;;;0.90;;
58808;SDS011;44579;51.672;7.834;2022-07-06T15:28:20;3.40;;;0.90;;
58808;SDS011;44579;51.672;7.834;2022-07-06T15:30:47;3.88;;;1.00;;
58808;SDS011;44579;51.672;7.834;2022-07-06T15:33:14;14.25;;;1.17;;
58808;SDS011;44579;51.672;7.834;2022-07-06T15:35:41;2.92;;;0.60;;
58808;SDS011;44579;51.672;7.834;2022-07-06T15:38:07;3.42;;;0.80;;
58808;SDS011;44579;51.672;7.834;2022-07-06T15:40:34;1.10;;;0.50;;
58808;SDS011;44579;51.672;7.834;2022-07-06T15:43:06;1.98;;;0.77;;
58808;SDS011;44579;51.672;7.834;2022-07-06T15:45:34;8.82;;;0.70;;
58808;SDS011;44579;51.672;7.834;2022-07-06T15:48:01;2.55;;;0.73;;
58808;SDS011;44579;51.672;7.834;2022-07-06T15:50:29;5.65;;;0.70;;
58808;SDS011;44579;51.672;7.834;2022-07-06T15:52:56;4.35;;;0.70;;
58808;SDS011;44579;51.672;7.834;2022-07-06T15:55:24;8.75;;;0.75;;